Time;durP1;ratioP1;P1;durP2;ratioP2;P2;SDS_P1;SDS_P2;PMS_P1;PMS_P2;Temp;Humidity;BMP_temperature;BMP_pressure;BME280_temperature;BME280_humidity;BME280_pressure;Samples;Min_cycle;Max_cycle;Signal;HPM_P1;HPM_P2
2023/10/13 00:02:09;;;;;;;0.60;0.50;;;17.50;66.10;;;;;;4981992;28;20221;-87
2023/10/13 00:04:42;;;;;;;0.40;0.40;;;17.50;66.10;;;;;;4988714;28;20202;-87
2023/10/13 00:07:11;;;;;;;1.73;0.80;;;17.50;66.20;;;;;;4989704;28;20653;-87
2023/10/13 00:09:42;;;;;;;1.10;1.03;;;17.50;66.10;;;;;;4964845;28;20626;-86
2023/10/13 00:12:13;;;;;;;1.00;0.90;;;17.50;66.20;;;;;;4966777;28;20196;-87
2023/10/13 00:14:45;;;;;;;3.03;0.60;;;17.40;66.00;;;;;;4970895;28;20198;-88
2023/10/13 00:17:20;;;;;;;0.73;0.60;;;17.40;66.10;;;;;;4974345;28;20589;-87
2023/10/13 00:19:52;;;;;;;0.40;0.40;;;17.40;66.20;;;;;;4990185;28;20275;-85
2023/10/13 00:22:22;;;;;;;1.23;0.80;;;17.40;66.10;;;;;;4980636;28;20263;-86
2023/10/13 00:24:58;;;;;;;0.40;0.40;;;17.30;66.30;;;;;;4975845;28;20193;-87
2023/10/13 00:27:33;;;;;;;0.40;0.40;;;17.40;66.30;;;;;;4979575;28;20193;-87
2023/10/13 00:30:22;;;;;;;1.23;0.93;;;17.40;66.30;;;;;;4984167;28;20260;-87
2023/10/13 00:32:55;;;;;;;0.87;0.87;;;17.40;66.50;;;;;;4988440;28;20201;-86
2023/10/13 00:35:28;;;;;;;1.07;0.77;;;17.40;67.50;;;;;;4981469;28;20208;-86
2023/10/13 00:37:59;;;;;;;0.80;0.80;;;17.40;66.60;;;;;;4985171;28;20197;-88
2023/10/13 00:40:43;;;;;;;0.40;0.40;;;17.40;66.50;;;;;;4963347;28;20650;-87
2023/10/13 00:43:34;;;;;;;0.50;0.50;;;17.40;66.50;;;;;;4979211;28;20224;-87
2023/10/13 00:46:07;;;;;;;1.10;1.00;;;17.30;66.70;;;;;;4972168;28;20630;-87
2023/10/13 00:48:51;;;;;;;0.40;0.40;;;17.40;66.40;;;;;;4987913;28;20205;-87
2023/10/13 00:51:32;;;;;;;1.83;0.87;;;17.30;66.40;;;;;;4986553;28;20334;-87
2023/10/13 00:54:11;;;;;;;0.67;0.67;;;17.40;66.40;;;;;;4981411;28;20206;-86
2023/10/13 00:56:46;;;;;;;0.63;0.57;;;17.40;66.60;;;;;;4984977;28;20647;-87
2023/10/13 00:59:16;;;;;;;1.47;0.87;;;17.40;66.60;;;;;;4976190;28;20276;-87
2023/10/13 01:01:44;;;;;;;0.40;0.40;;;17.30;66.80;;;;;;4984126;28;20649;-87
2023/10/13 01:04:14;;;;;;;0.43;0.43;;;17.30;66.90;;;;;;4972625;28;20868;-87
2023/10/13 01:06:42;;;;;;;0.50;0.40;;;17.30;66.70;;;;;;4980888;28;20201;-86
2023/10/13 01:09:13;;;;;;;0.33;0.33;;;17.30;66.60;;;;;;4991770;28;20735;-87
2023/10/13 01:11:44;;;;;;;1.70;0.77;;;17.20;66.40;;;;;;4989766;28;20221;-87
2023/10/13 01:14:14;;;;;;;0.63;0.63;;;17.20;66.90;;;;;;4985404;28;20193;-87
2023/10/13 01:16:43;;;;;;;0.60;0.60;;;17.20;66.90;;;;;;4987558;28;20197;-87
2023/10/13 01:19:18;;;;;;;0.30;0.30;;;17.20;66.80;;;;;;5006016;28;20217;-86
2023/10/13 01:21:48;;;;;;;1.17;0.93;;;17.20;66.80;;;;;;4996517;28;20192;-87
2023/10/13 01:24:23;;;;;;;0.60;0.60;;;17.10;66.60;;;;;;5003355;28;20222;-85
2023/10/13 01:26:53;;;;;;;0.33;0.33;;;17.10;66.60;;;;;;5001031;28;20717;-87
2023/10/13 01:29:28;;;;;;;0.93;0.83;;;17.10;66.70;;;;;;5007107;28;20197;-86
2023/10/13 01:31:56;;;;;;;1.30;0.67;;;17.10;66.90;;;;;;4992565;28;20192;-87
2023/10/13 01:34:25;;;;;;;3.50;0.93;;;17.10;67.00;;;;;;5012380;28;20265;-86
2023/10/13 01:36:54;;;;;;;0.37;0.37;;;17.00;67.10;;;;;;4994090;28;20201;-87
2023/10/13 01:39:28;;;;;;;0.57;0.50;;;17.00;67.00;;;;;;4984374;28;20201;-87
2023/10/13 01:41:56;;;;;;;3.27;1.40;;;17.00;67.70;;;;;;4975348;28;20193;-86
2023/10/13 01:44:27;;;;;;;0.80;0.53;;;16.90;68.20;;;;;;4988627;28;20229;-86
2023/10/13 01:46:55;;;;;;;2.37;1.03;;;16.90;68.30;;;;;;4973542;28;20230;-86
2023/10/13 01:49:24;;;;;;;2.30;1.50;;;16.90;68.60;;;;;;4985814;28;20632;-87
2023/10/13 01:51:52;;;;;;;0.73;0.63;;;16.80;68.60;;;;;;4985057;28;20233;-86
2023/10/13 01:54:21;;;;;;;0.63;0.57;;;16.80;68.40;;;;;;4984443;28;20201;-86
2023/10/13 01:56:50;;;;;;;0.90;0.90;;;16.70;68.60;;;;;;4974699;28;20628;-88
2023/10/13 01:59:19;;;;;;;2.00;1.40;;;16.70;68.80;;;;;;4977554;28;20252;-85
2023/10/13 02:01:47;;;;;;;1.00;0.93;;;16.70;69.00;;;;;;4987665;28;20206;-86
2023/10/13 02:04:21;;;;;;;0.70;0.70;;;16.70;69.00;;;;;;4988453;28;20231;-86
2023/10/13 02:06:49;;;;;;;0.67;0.60;;;16.60;69.40;;;;;;4988461;28;20200;-88
2023/10/13 02:09:25;;;;;;;0.67;0.60;;;16.60;69.60;;;;;;4981256;28;20198;-87
2023/10/13 02:11:56;;;;;;;1.53;1.03;;;16.60;69.80;;;;;;4988399;28;20196;-88
2023/10/13 02:14:25;;;;;;;0.67;0.63;;;16.50;70.00;;;;;;4989526;28;20207;-88
2023/10/13 02:17:12;;;;;;;1.50;1.07;;;16.50;70.00;;;;;;4956673;28;20392;-85
2023/10/13 02:19:44;;;;;;;0.70;0.70;;;16.50;70.30;;;;;;4980530;28;20204;-87
2023/10/13 02:22:29;;;;;;;1.13;1.03;;;16.50;70.50;;;;;;4979724;28;20194;-89
2023/10/13 02:25:01;;;;;;;1.07;1.00;;;16.40;70.60;;;;;;4988695;28;20272;-87
2023/10/13 02:27:40;;;;;;;1.00;0.90;;;16.40;71.00;;;;;;4991640;28;20217;-88
2023/10/13 02:30:13;;;;;;;1.63;1.53;;;16.30;71.40;;;;;;4985268;28;20312;-88
2023/10/13 02:32:43;;;;;;;0.80;0.80;;;16.20;71.40;;;;;;4988367;28;20615;-87
2023/10/13 02:35:15;;;;;;;3.97;2.10;;;16.20;71.60;;;;;;4984743;28;20279;-88
2023/10/13 02:37:43;;;;;;;1.03;0.97;;;16.20;71.80;;;;;;4970575;28;20194;-87
2023/10/13 02:40:13;;;;;;;0.90;0.90;;;16.20;71.90;;;;;;4985562;28;20201;-88
2023/10/13 02:42:42;;;;;;;1.13;0.80;;;16.10;72.00;;;;;;4990991;28;20200;-88
2023/10/13 02:45:12;;;;;;;0.77;0.77;;;16.10;72.00;;;;;;4988638;28;20237;-87
2023/10/13 02:47:43;;;;;;;5.77;1.97;;;16.10;72.00;;;;;;4990367;28;20250;-89
2023/10/13 02:50:12;;;;;;;3.23;1.47;;;16.00;72.10;;;;;;4989451;28;20197;-89
2023/10/13 02:52:41;;;;;;;3.23;1.73;;;16.00;72.30;;;;;;4958321;28;20198;-86
2023/10/13 02:55:14;;;;;;;2.47;1.07;;;16.00;72.30;;;;;;4986524;28;20209;-88
2023/10/13 02:57:44;;;;;;;3.33;1.53;;;16.00;73.00;;;;;;4992633;28;20657;-87
2023/10/13 03:00:15;;;;;;;0.60;0.60;;;16.00;72.20;;;;;;4972092;28;20642;-86
2023/10/13 03:02:58;;;;;;;0.97;0.83;;;16.00;72.30;;;;;;4973761;28;20200;-87
2023/10/13 03:05:30;;;;;;;2.30;0.83;;;16.00;72.20;;;;;;4980042;28;20207;-87
2023/10/13 03:08:04;;;;;;;0.60;0.60;;;16.00;71.90;;;;;;4986657;28;20239;-85
2023/10/13 03:10:32;;;;;;;1.80;0.90;;;16.00;71.60;;;;;;4958126;28;20192;-87
2023/10/13 03:13:03;;;;;;;0.50;0.50;;;16.00;71.90;;;;;;4961244;28;20243;-86
2023/10/13 03:15:35;;;;;;;0.60;0.60;;;16.00;72.40;;;;;;4970587;28;20640;-88
2023/10/13 03:18:04;;;;;;;4.23;2.13;;;16.00;72.60;;;;;;4978010;28;20324;-87
2023/10/13 03:20:32;;;;;;;4.10;1.43;;;16.00;72.70;;;;;;4977574;28;20233;-87
2023/10/13 03:23:01;;;;;;;3.67;2.60;;;16.00;72.90;;;;;;4963584;28;20201;-88
2023/10/13 03:25:42;;;;;;;1.47;1.37;;;16.00;72.80;;;;;;4987117;28;20213;-87
2023/10/13 03:28:13;;;;;;;1.37;0.60;;;16.00;72.50;;;;;;4990923;28;20293;-87
2023/10/13 03:30:42;;;;;;;0.50;0.50;;;15.90;72.60;;;;;;4985490;28;20210;-88
2023/10/13 03:33:14;;;;;;;3.97;1.40;;;15.90;73.10;;;;;;4986550;28;20265;-88
2023/10/13 03:35:43;;;;;;;0.97;0.90;;;15.90;73.40;;;;;;4982641;28;20251;-88
2023/10/13 03:38:19;;;;;;;0.70;0.70;;;15.90;73.60;;;;;;4989308;28;20554;-86
2023/10/13 03:40:56;;;;;;;2.27;1.37;;;15.90;73.80;;;;;;4979536;28;20201;-88
2023/10/13 03:43:29;;;;;;;0.97;0.80;;;15.80;74.10;;;;;;4990458;28;20221;-88
2023/10/13 03:46:07;;;;;;;3.43;1.87;;;15.80;74.20;;;;;;4989611;28;20578;-87
2023/10/13 03:48:52;;;;;;;5.83;1.77;;;15.80;74.40;;;;;;4986542;28;20193;-88
2023/10/13 03:51:21;;;;;;;1.33;1.23;;;15.80;74.50;;;;;;4983251;28;20193;-87
2023/10/13 03:53:53;;;;;;;1.20;0.83;;;15.70;74.50;;;;;;4990025;28;20196;-87
2023/10/13 03:56:27;;;;;;;1.80;1.67;;;15.70;74.10;;;;;;4973234;28;20564;-86
2023/10/13 03:59:05;;;;;;;1.30;1.20;;;15.70;74.00;;;;;;4988151;28;20684;-88
2023/10/13 04:01:45;;;;;;;0.40;0.40;;;15.70;74.10;;;;;;4973285;28;20227;-86
2023/10/13 04:04:29;;;;;;;1.17;1.00;;;15.70;74.20;;;;;;4988646;28;20224;-86
2023/10/13 04:07:13;;;;;;;1.23;0.80;;;15.70;74.40;;;;;;4974784;28;20201;-87
2023/10/13 04:15:19;;;;;;;1.27;1.17;;;15.60;74.30;;;;;;4986362;28;20640;-86
2023/10/13 04:17:50;;;;;;;1.67;1.57;;;15.60;74.50;;;;;;4989332;28;20219;-88
2023/10/13 04:20:32;;;;;;;1.33;1.23;;;15.60;74.50;;;;;;4961253;28;20213;-88
2023/10/13 04:23:25;;;;;;;4.67;2.33;;;15.50;74.50;;;;;;4988637;28;20199;-88
2023/10/13 04:26:09;;;;;;;1.27;1.03;;;15.50;74.80;;;;;;4978958;28;20595;-88
2023/10/13 04:28:52;;;;;;;2.57;2.37;;;15.40;74.70;;;;;;4974927;28;20580;-87
2023/10/13 04:34:15;;;;;;;0.87;0.87;;;15.40;74.90;;;;;;4985825;28;20251;-87
2023/10/13 04:36:57;;;;;;;2.57;2.00;;;15.40;75.00;;;;;;4983017;28;20190;-88
2023/10/13 04:39:35;;;;;;;1.37;1.27;;;15.30;75.10;;;;;;4980636;28;20186;-89
2023/10/13 04:42:13;;;;;;;5.07;2.40;;;15.30;75.10;;;;;;4978511;28;20205;-87
2023/10/13 04:44:52;;;;;;;5.07;2.07;;;15.20;75.50;;;;;;4981909;28;20210;-88
2023/10/13 04:47:23;;;;;;;10.50;2.17;;;15.20;76.10;;;;;;4986206;28;20313;-87
2023/10/13 04:49:52;;;;;;;1.67;1.13;;;15.20;75.40;;;;;;4987460;28;20229;-89
2023/10/13 04:52:50;;;;;;;11.47;1.70;;;15.20;75.50;;;;;;4984944;28;20209;-89
2023/10/13 04:55:48;;;;;;;11.90;7.43;;;15.20;75.80;;;;;;4983828;28;20197;-87
2023/10/13 04:58:42;;;;;;;54.57;23.30;;;15.20;76.20;;;;;;4978058;28;20202;-88
2023/10/13 05:01:49;;;;;;;22.43;10.53;;;15.20;76.40;;;;;;4981059;28;20198;-90
2023/10/13 05:04:37;;;;;;;12.70;3.90;;;15.20;76.50;;;;;;4983108;28;20315;-89
2023/10/13 05:47:22;;;;;;;0.70;0.70;;;15.90;76.20;;;;;;4987560;28;20235;-88
2023/10/13 05:49:52;;;;;;;1.57;1.47;;;15.90;76.00;;;;;;4972127;28;20224;-86
2023/10/13 06:28:40;;;;;;;1.20;0.93;;;16.00;75.70;;;;;;4988675;28;20691;-87
2023/10/13 06:58:23;;;;;;;5.33;1.30;;;18.00;72.20;;;;;;2154274;23;20233;-89
2023/10/13 07:00:55;;;;;;;0.93;0.87;;;18.00;72.10;;;;;;4971174;28;20207;-87
2023/10/13 07:03:24;;;;;;;2.03;0.93;;;18.10;72.00;;;;;;4969012;28;20194;-89
2023/10/13 07:05:53;;;;;;;1.50;0.83;;;18.20;71.80;;;;;;4965184;28;21231;-86
2023/10/13 07:08:23;;;;;;;0.70;0.70;;;18.20;71.60;;;;;;4964060;28;20190;-85
2023/10/13 07:11:02;;;;;;;1.93;0.97;;;18.30;71.50;;;;;;4967466;28;20661;-86
2023/10/13 07:13:36;;;;;;;0.30;0.30;;;18.30;71.40;;;;;;4973470;28;20198;-87
2023/10/13 07:16:08;;;;;;;2.10;0.90;;;18.40;71.30;;;;;;4969677;28;20324;-86
2023/10/13 07:18:49;;;;;;;0.70;0.70;;;18.60;71.30;;;;;;4972307;28;20677;-87
2023/10/13 07:21:24;;;;;;;2.83;1.60;;;18.70;71.10;;;;;;4970930;28;20835;-88
2023/10/13 07:24:08;;;;;;;2.03;0.93;;;18.70;70.70;;;;;;4966257;28;20197;-87
2023/10/13 07:26:42;;;;;;;0.67;0.67;;;18.80;70.30;;;;;;4974422;28;20269;-86
2023/10/13 07:29:14;;;;;;;0.73;0.70;;;18.90;70.10;;;;;;4974494;28;20196;-86
2023/10/13 07:31:44;;;;;;;1.47;0.87;;;19.00;69.90;;;;;;4969817;28;20194;-86
2023/10/13 07:34:24;;;;;;;4.10;1.50;;;19.00;69.70;;;;;;4962492;28;20636;-86
2023/10/13 07:36:59;;;;;;;0.70;0.70;;;19.10;69.40;;;;;;4974823;28;20208;-87
2023/10/13 07:39:33;;;;;;;1.40;1.20;;;19.20;69.20;;;;;;4972077;28;20192;-88
2023/10/13 07:42:08;;;;;;;1.90;1.03;;;19.20;69.10;;;;;;4956529;28;20221;-87
2023/10/13 07:44:45;;;;;;;0.97;0.80;;;19.30;69.10;;;;;;4975435;28;20713;-87
2023/10/13 07:47:17;;;;;;;2.40;1.50;;;19.40;68.80;;;;;;4972433;28;21194;-88
2023/10/13 07:49:50;;;;;;;3.20;1.03;;;19.40;68.70;;;;;;4970596;28;20648;-86
2023/10/13 07:52:35;;;;;;;3.07;1.00;;;19.50;68.30;;;;;;4966478;28;20196;-87
2023/10/13 07:55:20;;;;;;;2.97;1.37;;;19.50;68.20;;;;;;4972695;28;20205;-84
2023/10/13 07:57:55;;;;;;;1.43;0.77;;;19.60;68.00;;;;;;4972780;28;20193;-87
2023/10/13 08:00:46;;;;;;;1.13;0.68;;;19.70;68.10;;;;;;4971959;28;20193;-86
2023/10/13 08:03:31;;;;;;;0.97;0.87;;;19.80;68.10;;;;;;4971956;28;20194;-85
2023/10/13 08:06:06;;;;;;;0.68;0.68;;;19.90;67.80;;;;;;4972722;28;20217;-88
2023/10/13 08:08:43;;;;;;;9.60;2.65;;;20.00;67.40;;;;;;4973729;28;20198;-87
2023/10/13 08:11:24;;;;;;;1.92;0.82;;;20.10;66.90;;;;;;4967022;28;20638;-87
2023/10/13 08:13:56;;;;;;;0.60;0.60;;;20.20;66.90;;;;;;4965718;28;20654;-87
2023/10/13 08:16:52;;;;;;;0.85;0.63;;;20.30;66.80;;;;;;4964172;28;20198;-87
2023/10/13 08:19:26;;;;;;;1.90;1.55;;;20.40;66.50;;;;;;4964088;28;20666;-87
2023/10/13 08:21:59;;;;;;;0.93;0.90;;;20.40;66.10;;;;;;4962406;28;20261;-90
2023/10/13 08:24:55;;;;;;;0.30;0.30;;;20.60;65.70;;;;;;4973300;28;20197;-88
2023/10/13 08:27:34;;;;;;;3.05;1.00;;;20.60;65.50;;;;;;4970593;28;20233;-86
2023/10/13 08:32:56;;;;;;;1.65;1.20;;;20.90;65.40;;;;;;4971088;28;20625;-85
2023/10/13 08:35:34;;;;;;;1.55;1.20;;;21.00;65.30;;;;;;4963941;28;20212;-86
2023/10/13 08:38:16;;;;;;;0.57;0.57;;;21.10;65.00;;;;;;4970139;28;20210;-86
2023/10/13 08:43:51;;;;;;;1.33;1.23;;;21.40;65.00;;;;;;4971410;28;20202;-85
2023/10/13 08:46:28;;;;;;;0.88;0.85;;;21.50;64.00;;;;;;4973001;28;20304;-86
2023/10/13 08:49:06;;;;;;;0.57;0.52;;;21.70;64.10;;;;;;4971421;28;20209;-85
2023/10/13 08:51:48;;;;;;;1.08;0.43;;;21.80;63.70;;;;;;4987760;28;20261;-85
2023/10/13 08:54:34;;;;;;;1.27;0.75;;;21.90;63.70;;;;;;4988125;28;20182;-85
2023/10/13 08:57:32;;;;;;;0.85;0.85;;;22.00;63.30;;;;;;4961746;28;20190;-87
2023/10/13 09:06:00;;;;;;;0.45;0.45;;;22.40;62.80;;;;;;4972763;28;20213;-86
2023/10/13 09:08:44;;;;;;;4.05;0.45;;;22.50;62.70;;;;;;4973066;28;20208;-83
2023/10/13 09:11:12;;;;;;;0.45;0.45;;;22.60;62.00;;;;;;4971556;28;20190;-83
2023/10/13 09:13:47;;;;;;;0.65;0.40;;;22.70;61.90;;;;;;4969021;28;20261;-85
2023/10/13 09:16:17;;;;;;;0.57;0.57;;;22.70;61.60;;;;;;4964800;28;20220;-86
2023/10/13 09:18:52;;;;;;;1.98;1.30;;;22.80;61.00;;;;;;4959144;28;20217;-86
2023/10/13 09:21:43;;;;;;;0.60;0.60;;;22.90;61.10;;;;;;4967107;28;20288;-86
2023/10/13 09:24:27;;;;;;;0.43;0.43;;;23.00;61.00;;;;;;4967619;28;20661;-86
2023/10/13 09:26:57;;;;;;;2.28;0.90;;;23.10;60.70;;;;;;4967525;28;20654;-86
2023/10/13 09:29:24;;;;;;;0.68;0.68;;;23.10;59.00;;;;;;4970556;28;20634;-86
2023/10/13 09:32:02;;;;;;;0.45;0.45;;;23.20;59.30;;;;;;4969263;28;20229;-86
2023/10/13 09:34:33;;;;;;;0.30;0.30;;;23.30;59.00;;;;;;4964989;28;20661;-86
2023/10/13 09:37:15;;;;;;;1.58;0.60;;;23.30;59.00;;;;;;4968409;28;20225;-85
2023/10/13 09:39:48;;;;;;;0.77;0.77;;;23.40;59.00;;;;;;4943420;28;20717;-85
2023/10/13 09:42:18;;;;;;;4.80;0.70;;;23.50;59.10;;;;;;4964719;28;20198;-84
2023/10/13 09:44:55;;;;;;;0.57;0.57;;;23.50;59.00;;;;;;4953682;28;21102;-85
2023/10/13 09:47:29;;;;;;;0.85;0.63;;;23.60;58.40;;;;;;4962057;28;20217;-84
2023/10/13 09:50:13;;;;;;;1.55;1.00;;;23.70;58.60;;;;;;4966756;28;20198;-85
2023/10/13 09:52:45;;;;;;;0.63;0.63;;;23.80;58.10;;;;;;4945221;28;20196;-85
2023/10/13 09:55:25;;;;;;;1.35;0.70;;;23.90;58.10;;;;;;4965658;28;20201;-84
2023/10/13 09:58:09;;;;;;;0.45;0.45;;;24.00;57.80;;;;;;4962052;28;20598;-84
2023/10/13 10:00:49;;;;;;;0.93;0.70;;;24.10;57.60;;;;;;4945317;28;20198;-84
2023/10/13 10:03:30;;;;;;;0.65;0.55;;;24.20;57.60;;;;;;4964175;28;20209;-82
2023/10/13 10:06:06;;;;;;;1.13;0.88;;;24.30;57.60;;;;;;4961906;28;20664;-85
2023/10/13 10:08:38;;;;;;;2.17;0.73;;;24.50;56.80;;;;;;4960819;28;20189;-83
2023/10/13 10:11:34;;;;;;;0.57;0.57;;;24.60;56.60;;;;;;4965025;28;20846;-83
2023/10/13 10:14:12;;;;;;;0.98;0.70;;;24.60;55.90;;;;;;4968315;28;20824;-82
2023/10/13 10:16:52;;;;;;;0.55;0.40;;;24.80;56.10;;;;;;4965969;28;20225;-83
2023/10/13 10:19:20;;;;;;;0.65;0.45;;;24.80;55.90;;;;;;4957017;28;20444;-82
2023/10/13 10:21:50;;;;;;;0.77;0.40;;;25.00;55.90;;;;;;4966268;28;20257;-84
2023/10/13 10:24:29;;;;;;;1.95;0.70;;;25.00;55.50;;;;;;4963806;28;20209;-84
2023/10/13 10:26:58;;;;;;;3.35;1.33;;;25.00;55.50;;;;;;4966444;28;20213;-85
2023/10/13 10:29:26;;;;;;;2.95;1.70;;;25.00;54.80;;;;;;4969469;28;20209;-82
2023/10/13 10:31:55;;;;;;;1.48;0.50;;;25.10;55.20;;;;;;4968789;28;20283;-83
2023/10/13 10:34:33;;;;;;;1.13;0.75;;;25.10;54.90;;;;;;4964364;28;20193;-83
2023/10/13 10:37:08;;;;;;;0.52;0.52;;;25.20;55.30;;;;;;4968214;28;20201;-83
2023/10/13 10:39:49;;;;;;;0.73;0.50;;;25.20;55.00;;;;;;4968146;28;20197;-83
2023/10/13 10:42:23;;;;;;;0.32;0.32;;;25.30;54.90;;;;;;4973527;28;20190;-83
2023/10/13 10:44:57;;;;;;;2.08;0.98;;;25.30;55.10;;;;;;4970227;28;20280;-84
2023/10/13 10:47:33;;;;;;;0.43;0.43;;;25.30;54.70;;;;;;4956944;28;20221;-83
2023/10/13 10:50:07;;;;;;;0.40;0.40;;;25.30;54.70;;;;;;4970244;28;20672;-83
2023/10/13 10:52:39;;;;;;;4.25;1.77;;;25.30;54.40;;;;;;4972054;28;20253;-82
2023/10/13 10:55:13;;;;;;;0.88;0.88;;;25.30;54.70;;;;;;4969295;28;20249;-82
2023/10/13 10:57:43;;;;;;;1.30;0.55;;;25.40;54.70;;;;;;4959554;28;20198;-83
2023/10/13 11:00:20;;;;;;;1.05;0.65;;;25.40;54.20;;;;;;4972674;28;20201;-83
2023/10/13 11:02:55;;;;;;;0.20;0.20;;;25.40;54.50;;;;;;4973296;28;20744;-84
2023/10/13 11:05:32;;;;;;;0.40;0.40;;;25.40;54.60;;;;;;4970450;28;20185;-83
2023/10/13 11:08:03;;;;;;;1.08;0.75;;;25.40;54.70;;;;;;4970461;28;20213;-83
2023/10/13 11:10:38;;;;;;;3.30;0.30;;;25.50;54.80;;;;;;4969199;28;20194;-84
2023/10/13 11:13:13;;;;;;;0.30;0.30;;;25.50;54.60;;;;;;4963553;28;20189;-83
2023/10/13 11:15:45;;;;;;;1.27;0.65;;;25.50;54.50;;;;;;4962668;28;20264;-83
2023/10/13 11:18:20;;;;;;;3.70;1.23;;;25.50;54.50;;;;;;4971698;28;20193;-82
2023/10/13 11:20:54;;;;;;;0.30;0.30;;;25.60;55.20;;;;;;4971197;28;20194;-83
2023/10/13 11:23:25;;;;;;;0.60;0.40;;;25.60;54.50;;;;;;4973535;28;20197;-82
2023/10/13 11:26:03;;;;;;;0.65;0.52;;;25.60;54.40;;;;;;4969946;28;20245;-82
2023/10/13 11:28:34;;;;;;;0.32;0.32;;;25.60;54.30;;;;;;4972656;28;20324;-83
2023/10/13 11:31:10;;;;;;;0.68;0.68;;;25.60;54.20;;;;;;4972993;28;20196;-83
2023/10/13 11:33:46;;;;;;;1.63;0.60;;;25.70;54.20;;;;;;4973810;28;20281;-83
2023/10/13 11:36:17;;;;;;;1.48;1.20;;;25.70;54.10;;;;;;4973600;28;20197;-83
2023/10/13 11:38:49;;;;;;;0.43;0.43;;;25.70;54.20;;;;;;4972088;28;20284;-84
2023/10/13 11:41:19;;;;;;;0.40;0.40;;;25.80;54.30;;;;;;4974022;28;20233;-83
2023/10/13 11:46:58;;;;;;;0.40;0.32;;;25.90;53.80;;;;;;4954819;28;20241;-83
2023/10/13 11:49:34;;;;;;;0.22;0.22;;;25.90;54.20;;;;;;4958908;28;20190;-82
2023/10/13 11:52:15;;;;;;;1.48;0.77;;;26.00;53.90;;;;;;4965745;28;20200;-82
2023/10/13 11:54:46;;;;;;;0.55;0.40;;;26.10;53.80;;;;;;4967178;28;20189;-84
2023/10/13 11:57:21;;;;;;;1.13;0.68;;;26.10;53.20;;;;;;4959986;28;20202;-82
2023/10/13 12:00:16;;;;;;;1.15;0.95;;;26.10;53.20;;;;;;4964561;28;20238;-84
2023/10/13 12:05:49;;;;;;;0.43;0.30;;;26.10;53.30;;;;;;4968871;28;20197;-82
2023/10/13 12:08:32;;;;;;;1.35;1.05;;;26.00;53.10;;;;;;4960331;28;20276;-82
2023/10/13 12:11:30;;;;;;;0.50;0.40;;;26.00;53.10;;;;;;4971485;28;20202;-83
2023/10/13 12:13:51;;;;;;;0.93;0.57;;;26.00;53.30;;;;;;4969505;28;20228;-83
2023/10/13 12:16:20;;;;;;;0.30;0.30;;;25.90;53.30;;;;;;4966234;28;20280;-82
2023/10/13 12:18:53;;;;;;;0.30;0.30;;;25.90;53.50;;;;;;4969966;28;20213;-83
2023/10/13 12:21:22;;;;;;;0.40;0.40;;;25.90;53.60;;;;;;4968074;28;20217;-83
2023/10/13 12:23:52;;;;;;;0.75;0.45;;;25.90;53.70;;;;;;4970120;28;20198;-81
2023/10/13 12:26:29;;;;;;;0.40;0.40;;;25.90;53.70;;;;;;4967058;28;20800;-83
2023/10/13 12:29:06;;;;;;;0.65;0.65;;;25.90;53.80;;;;;;4968051;28;20213;-83
2023/10/13 12:31:39;;;;;;;0.38;0.38;;;25.90;53.90;;;;;;4968823;28;20189;-82
2023/10/13 12:34:14;;;;;;;0.90;0.45;;;25.90;53.80;;;;;;4965813;28;20337;-84
2023/10/13 12:36:53;;;;;;;1.25;0.55;;;26.00;53.90;;;;;;4968015;28;20208;-85
2023/10/13 12:51:07;;;;;;;0.60;0.40;;;26.30;53.40;;;;;;4919316;29;20199;-84
2023/10/13 12:53:35;;;;;;;3.70;1.50;;;26.40;53.40;;;;;;4912097;29;20255;-84
2023/10/13 12:56:04;;;;;;;1.25;0.77;;;26.50;53.40;;;;;;4934453;29;20206;-84
2023/10/13 12:58:32;;;;;;;0.68;0.68;;;26.40;53.10;;;;;;4957828;28;20233;-83
2023/10/13 13:01:06;;;;;;;0.30;0.30;;;26.50;52.70;;;;;;4968078;28;20283;-85
2023/10/13 13:03:35;;;;;;;1.00;0.60;;;26.50;52.70;;;;;;4969145;28;20250;-84
2023/10/13 13:06:07;;;;;;;0.57;0.57;;;26.50;52.50;;;;;;4970604;28;20260;-83
2023/10/13 13:08:36;;;;;;;1.42;1.23;;;26.60;52.60;;;;;;4966304;28;20224;-84
2023/10/13 13:11:04;;;;;;;3.65;0.95;;;26.70;52.60;;;;;;4967406;28;20198;-85
2023/10/13 13:13:33;;;;;;;0.57;0.40;;;26.70;52.50;;;;;;4969130;28;20210;-86
2023/10/13 13:16:03;;;;;;;0.40;0.30;;;26.80;52.30;;;;;;4959473;28;20194;-85
2023/10/13 13:18:33;;;;;;;1.00;0.55;;;26.80;51.80;;;;;;4969054;28;20194;-83
2023/10/13 13:21:06;;;;;;;3.30;0.50;;;26.80;51.70;;;;;;4964721;28;20543;-84
2023/10/13 13:23:35;;;;;;;0.32;0.32;;;26.90;51.90;;;;;;4958660;28;20194;-84
2023/10/13 13:26:15;;;;;;;0.82;0.63;;;26.90;51.70;;;;;;4960983;28;20212;-87
2023/10/13 13:28:43;;;;;;;0.55;0.50;;;27.00;51.90;;;;;;4967381;28;20997;-85
2023/10/13 13:31:15;;;;;;;0.88;0.73;;;27.00;51.90;;;;;;4964333;28;20648;-83
2023/10/13 13:33:44;;;;;;;0.50;0.50;;;27.00;52.00;;;;;;4965500;28;20204;-83
2023/10/13 13:36:15;;;;;;;0.52;0.52;;;27.00;51.70;;;;;;4969719;28;20208;-85
2023/10/13 13:38:46;;;;;;;0.50;0.50;;;27.00;51.70;;;;;;4966439;28;20221;-83
2023/10/13 13:41:16;;;;;;;0.20;0.20;;;27.00;51.90;;;;;;4967433;28;20198;-84
2023/10/13 13:43:56;;;;;;;0.40;0.40;;;26.90;51.90;;;;;;4969284;28;20603;-84
2023/10/13 13:46:32;;;;;;;0.38;0.30;;;26.90;51.90;;;;;;4970079;28;20197;-84
2023/10/13 13:49:06;;;;;;;2.30;0.82;;;27.00;52.10;;;;;;4968651;28;20300;-83
2023/10/13 13:51:37;;;;;;;1.88;0.85;;;26.90;51.70;;;;;;4963157;28;20722;-83
2023/10/13 13:54:07;;;;;;;0.60;0.60;;;26.90;51.80;;;;;;4968017;28;20192;-82
2023/10/13 13:56:38;;;;;;;2.08;1.23;;;26.90;51.70;;;;;;4964115;28;20209;-85
2023/10/13 13:59:09;;;;;;;1.65;1.10;;;26.80;51.70;;;;;;4965640;28;20321;-83
2023/10/13 14:01:40;;;;;;;2.10;1.45;;;26.80;51.70;;;;;;4963381;28;20776;-83
2023/10/13 14:04:09;;;;;;;1.30;0.50;;;26.80;51.60;;;;;;4958369;28;20194;-83
2023/10/13 14:06:38;;;;;;;1.27;0.95;;;26.70;51.40;;;;;;4962368;28;20197;-84
2023/10/13 14:09:15;;;;;;;1.75;0.40;;;26.70;51.50;;;;;;4962746;28;20598;-84
2023/10/13 14:14:34;;;;;;;0.30;0.30;;;26.60;51.80;;;;;;4945446;28;20201;-86
2023/10/13 14:17:06;;;;;;;0.55;0.55;;;26.50;51.90;;;;;;4970624;28;20559;-85
2023/10/13 14:19:40;;;;;;;1.00;0.80;;;26.50;52.00;;;;;;4971317;28;20194;-84
2023/10/13 14:22:12;;;;;;;1.25;1.05;;;26.50;52.10;;;;;;4966198;28;20194;-86
2023/10/13 14:24:51;;;;;;;1.52;0.63;;;26.40;52.00;;;;;;4972049;28;20194;-86
2023/10/13 14:27:22;;;;;;;0.45;0.45;;;26.30;52.00;;;;;;4970423;28;20594;-86
2023/10/13 14:29:53;;;;;;;0.52;0.50;;;26.30;52.10;;;;;;4970148;28;20301;-87
2023/10/13 14:32:27;;;;;;;0.40;0.40;;;26.20;52.10;;;;;;4970401;28;20611;-86
2023/10/13 14:34:57;;;;;;;0.30;0.30;;;26.20;52.20;;;;;;4968774;28;20653;-86
2023/10/13 14:37:30;;;;;;;0.40;0.40;;;26.10;52.20;;;;;;4972403;28;20289;-86
2023/10/13 14:40:00;;;;;;;0.57;0.50;;;26.00;52.00;;;;;;4965845;28;20201;-87
2023/10/13 14:42:35;;;;;;;0.52;0.50;;;25.90;52.00;;;;;;4971120;28;20213;-86
2023/10/13 14:45:12;;;;;;;0.63;0.63;;;25.90;52.10;;;;;;4966935;28;20190;-87
2023/10/13 14:47:42;;;;;;;0.55;0.52;;;25.90;52.30;;;;;;4970118;28;20680;-87
2023/10/13 14:50:19;;;;;;;3.40;0.80;;;25.80;52.30;;;;;;4968425;28;20595;-87
2023/10/13 14:52:49;;;;;;;0.65;0.40;;;25.80;52.40;;;;;;4971097;28;20196;-87
2023/10/13 14:55:21;;;;;;;0.30;0.30;;;25.70;52.40;;;;;;4971265;28;20190;-85
2023/10/13 14:57:50;;;;;;;0.20;0.20;;;25.70;52.50;;;;;;4964774;28;20210;-85
2023/10/13 15:00:25;;;;;;;0.30;0.30;;;25.60;52.50;;;;;;4971220;28;20280;-87
2023/10/13 15:02:56;;;;;;;0.70;0.60;;;25.60;52.50;;;;;;4967787;28;20194;-87
2023/10/13 15:05:24;;;;;;;0.52;0.52;;;25.50;52.50;;;;;;4969266;28;20581;-86
2023/10/13 15:07:53;;;;;;;0.30;0.30;;;25.50;52.60;;;;;;4967205;28;20202;-85
2023/10/13 15:10:21;;;;;;;0.20;0.20;;;25.40;52.60;;;;;;4968205;28;20225;-85
2023/10/13 15:12:50;;;;;;;0.20;0.20;;;25.40;52.70;;;;;;4971367;28;20631;-86
2023/10/13 15:15:19;;;;;;;0.30;0.30;;;25.40;52.80;;;;;;4968924;28;20240;-85
2023/10/13 15:17:50;;;;;;;0.40;0.40;;;25.30;52.80;;;;;;4967283;28;20661;-85
2023/10/13 15:20:23;;;;;;;0.40;0.40;;;25.20;52.80;;;;;;4971068;28;20280;-86
2023/10/13 15:22:59;;;;;;;0.47;0.47;;;25.20;53.00;;;;;;4960784;28;20233;-84
2023/10/13 15:25:31;;;;;;;1.52;1.17;;;25.10;53.10;;;;;;4967094;28;20280;-84
2023/10/13 19:44:58;;;;;;;1.53;1.43;;;19.90;63.30;;;;;;6138409;23;20211;-83
2023/10/13 19:47:30;;;;;;;3.67;1.60;;;19.90;63.40;;;;;;6158249;23;20201;-84
2023/10/13 19:49:59;;;;;;;2.77;1.53;;;19.90;63.50;;;;;;6238017;23;20221;-84
2023/10/13 19:52:28;;;;;;;4.13;1.47;;;19.90;63.90;;;;;;6239646;23;20253;-84
2023/10/13 19:54:57;;;;;;;2.80;1.70;;;19.80;64.10;;;;;;6239455;23;20205;-86
2023/10/13 19:57:26;;;;;;;2.57;1.57;;;19.80;64.10;;;;;;6240696;23;20254;-86
2023/10/13 19:59:56;;;;;;;3.03;0.87;;;19.80;64.00;;;;;;6238200;23;20174;-85
2023/10/13 20:02:24;;;;;;;3.23;1.10;;;19.80;64.10;;;;;;6241370;23;20170;-86
2023/10/13 20:04:55;;;;;;;1.40;1.30;;;19.70;64.10;;;;;;6239047;23;20182;-85